createdAt,value
2022-10-09T00:00:16.629Z,31.18
2022-10-09T00:00:48.342Z,31.40
2022-10-09T00:01:23.536Z,31.10
2022-10-09T00:01:55.045Z,31.16
2022-10-09T00:02:26.653Z,31.30
2022-10-09T00:02:58.095Z,31.10
2022-10-09T00:03:29.590Z,31.36
2022-10-09T00:04:01.042Z,31.02
2022-10-09T00:04:32.562Z,31.37
2022-10-09T00:05:04.233Z,31.22
2022-10-09T00:05:35.832Z,31.45
2022-10-09T00:06:07.681Z,31.35
2022-10-09T00:06:39.057Z,31.11
2022-10-09T00:07:10.521Z,31.09
2022-10-09T00:07:41.988Z,31.28
2022-10-09T00:08:13.441Z,31.00
2022-10-09T00:08:44.972Z,31.30
2022-10-09T00:09:16.556Z,31.16
2022-10-09T00:09:47.980Z,31.24
2022-10-09T00:10:19.504Z,31.13
2022-10-09T00:10:51.059Z,31.17
2022-10-09T00:11:25.117Z,31.08
2022-10-09T00:11:56.535Z,30.89
2022-10-09T00:12:27.960Z,31.28
2022-10-09T00:12:59.512Z,31.27
2022-10-09T00:13:30.903Z,31.28
2022-10-09T00:14:02.610Z,31.17
2022-10-09T00:14:34.035Z,31.03
2022-10-09T00:15:05.806Z,31.28
2022-10-09T00:15:38.228Z,31.06
2022-10-09T00:16:10.318Z,31.11
2022-10-09T00:16:41.805Z,31.08
2022-10-09T00:17:13.261Z,31.08
2022-10-09T00:17:44.841Z,31.06
2022-10-09T00:18:16.870Z,31.03
2022-10-09T00:18:48.433Z,31.13
2022-10-09T00:19:19.830Z,30.98
2022-10-09T00:19:51.387Z,31.12
2022-10-09T00:26:06.572Z,30.81
2022-10-09T00:27:00.171Z,31.05
2022-10-09T00:27:56.635Z,31.16
2022-10-09T00:28:51.846Z,31.11
2022-10-09T00:32:32.222Z,31.24
2022-10-09T00:33:24.123Z,31.13
2022-10-09T00:34:15.866Z,31.12
2022-10-09T00:35:12.949Z,30.91
2022-10-09T00:36:02.797Z,31.04
2022-10-09T00:36:54.286Z,31.04
2022-10-09T00:41:27.311Z,31.09
2022-10-09T00:44:32.144Z,30.97
2022-10-09T00:45:27.057Z,31.00
2022-10-09T00:46:19.425Z,30.85
2022-10-09T00:47:20.584Z,30.87
2022-10-09T00:51:53.719Z,31.09
2022-10-09T00:52:48.832Z,30.91
2022-10-09T00:56:04.717Z,30.92
2022-10-09T00:56:53.853Z,30.77
2022-10-09T00:57:49.770Z,30.53
2022-10-09T01:00:53.658Z,30.96
2022-10-09T01:01:58.524Z,30.92
2022-10-09T01:02:53.958Z,30.72
2022-10-09T01:03:57.550Z,30.77
2022-10-09T01:07:45.388Z,30.68
2022-10-09T01:08:46.505Z,30.49
2022-10-09T01:09:48.698Z,30.84
2022-10-09T01:12:40.952Z,30.74
2022-10-09T01:13:39.290Z,30.63
2022-10-09T01:14:45.744Z,30.73
2022-10-09T01:15:29.425Z,30.80
2022-10-09T01:20:11.004Z,30.63
2022-10-09T01:23:31.180Z,30.70
2022-10-09T01:24:25.127Z,30.78
2022-10-09T01:25:30.281Z,30.47
2022-10-09T01:26:48.648Z,30.64
2022-10-09T01:27:51.989Z,30.48
2022-10-09T01:28:47.668Z,30.37
2022-10-09T01:29:33.492Z,30.61
2022-10-09T01:38:17.929Z,30.65
2022-10-09T01:39:12.737Z,30.21
2022-10-09T01:40:05.020Z,30.16
2022-10-09T01:41:02.367Z,30.44
2022-10-09T01:41:57.578Z,30.27
2022-10-09T01:43:00.334Z,30.26
2022-10-09T01:44:03.648Z,30.54
2022-10-09T01:46:23.068Z,30.55
2022-10-09T01:47:11.521Z,30.25
2022-10-09T01:47:57.594Z,30.40
2022-10-09T01:48:44.769Z,30.16
2022-10-09T01:49:44.425Z,30.38
2022-10-09T01:50:45.739Z,30.10
2022-10-09T01:51:40.190Z,30.01
2022-10-09T01:52:29.461Z,30.32
2022-10-09T01:53:20.144Z,30.33
2022-10-09T01:54:15.924Z,30.22
2022-10-09T01:55:18.868Z,30.22
2022-10-09T01:56:24.529Z,30.36
2022-10-09T01:57:31.456Z,30.32
2022-10-09T01:58:22.708Z,30.43
2022-10-09T02:00:06.663Z,30.30
2022-10-09T02:01:04.261Z,30.11
2022-10-09T02:01:56.921Z,30.25
2022-10-09T02:02:59.521Z,30.26
2022-10-09T02:04:01.409Z,30.10
2022-10-09T02:06:19.392Z,30.21
2022-10-09T02:07:08.502Z,30.19
2022-10-09T02:07:57.700Z,30.10
2022-10-09T02:08:45.705Z,30.22
2022-10-09T02:09:42.801Z,30.02
2022-10-09T02:10:31.496Z,30.28
2022-10-09T02:11:19.425Z,30.04
2022-10-09T02:12:09.760Z,30.01
2022-10-09T02:13:06.949Z,30.29
2022-10-09T02:14:02.374Z,30.18
2022-10-09T02:15:00.366Z,30.12
2022-10-09T02:15:59.244Z,30.02
2022-10-09T02:17:03.184Z,29.93
2022-10-09T02:20:10.621Z,29.98
2022-10-09T02:21:03.354Z,30.06
2022-10-09T02:21:55.303Z,29.92
2022-10-09T02:22:48.568Z,30.12
2022-10-09T02:23:42.463Z,30.10
2022-10-09T02:24:36.159Z,29.99
2022-10-09T02:26:31.884Z,30.10
2022-10-09T02:27:26.026Z,29.93
2022-10-09T02:28:18.620Z,30.13
2022-10-09T02:29:12.399Z,30.18
2022-10-09T02:30:15.392Z,29.96
2022-10-09T02:31:06.165Z,29.81
2022-10-09T02:31:57.999Z,29.83
2022-10-09T02:32:48.063Z,29.97
2022-10-09T02:34:43.208Z,29.88
2022-10-09T02:36:38.724Z,30.10
2022-10-09T02:37:32.597Z,30.19
2022-10-09T02:38:25.851Z,29.93
2022-10-09T02:39:20.394Z,29.92
2022-10-09T02:40:18.208Z,29.79
2022-10-09T02:41:18.673Z,29.77
2022-10-09T02:42:13.184Z,29.83
2022-10-09T02:43:05.387Z,29.84
2022-10-09T02:43:58.371Z,30.00
2022-10-09T02:44:52.137Z,29.91
2022-10-09T02:45:49.264Z,30.07
2022-10-09T02:46:43.079Z,29.79
2022-10-09T02:47:36.922Z,29.82
2022-10-09T02:48:30.639Z,29.60
2022-10-09T02:50:04.767Z,30.04
2022-10-09T02:51:04.252Z,30.05
2022-10-09T02:51:55.372Z,30.03
2022-10-09T02:52:45.380Z,29.56
2022-10-09T02:53:35.635Z,29.75
2022-10-09T02:54:25.032Z,29.79
2022-10-09T02:55:18.997Z,29.90
2022-10-09T02:56:08.561Z,29.61
2022-10-09T02:56:58.635Z,29.68
2022-10-09T02:57:50.015Z,29.92
2022-10-09T02:58:40.096Z,29.76
2022-10-09T02:59:30.422Z,29.62
2022-10-09T03:00:23.688Z,29.78
2022-10-09T03:01:11.199Z,29.88
2022-10-09T03:02:03.349Z,29.74
2022-10-09T03:02:54.378Z,29.71
2022-10-09T03:03:45.421Z,29.81
2022-10-09T03:04:36.288Z,29.69
2022-10-09T03:05:31.201Z,30.00
2022-10-09T03:06:23.972Z,29.80
2022-10-09T03:07:15.090Z,29.79
2022-10-09T03:08:06.029Z,29.99
2022-10-09T03:08:57.283Z,29.67
2022-10-09T03:09:47.762Z,29.54
2022-10-09T03:10:47.123Z,29.75
2022-10-09T03:11:39.077Z,29.72
2022-10-09T03:12:29.510Z,29.71
2022-10-09T03:13:20.131Z,29.91
2022-10-09T03:14:11.257Z,29.92
2022-10-09T03:15:01.889Z,29.65
2022-10-09T03:15:59.711Z,29.61
2022-10-09T03:16:48.643Z,29.92
2022-10-09T03:17:36.604Z,29.99
2022-10-09T03:18:25.938Z,30.03
2022-10-09T03:19:17.849Z,29.88
2022-10-09T03:20:06.911Z,29.65
2022-10-09T03:21:03.271Z,29.58
2022-10-09T03:21:54.669Z,29.71
2022-10-09T03:22:47.154Z,29.72
2022-10-09T03:23:38.355Z,29.45
2022-10-09T03:24:28.484Z,29.73
2022-10-09T03:25:21.246Z,29.75
2022-10-09T03:26:15.262Z,29.70
2022-10-09T03:27:06.573Z,29.49
2022-10-09T03:27:58.486Z,29.66
2022-10-09T03:28:50.446Z,29.65
2022-10-09T03:29:41.551Z,29.73
2022-10-09T03:30:32.850Z,29.67
2022-10-09T03:31:50.460Z,29.59
2022-10-09T03:32:36.213Z,29.69
2022-10-09T03:33:27.447Z,29.55
2022-10-09T03:34:18.702Z,29.37
2022-10-09T03:35:12.704Z,29.42
2022-10-09T03:36:08.161Z,29.39
2022-10-09T03:36:58.915Z,29.42
2022-10-09T03:37:49.476Z,29.29
2022-10-09T03:38:40.629Z,29.26
2022-10-09T03:39:30.208Z,29.62
2022-10-09T03:40:20.146Z,29.76
2022-10-09T03:41:16.964Z,29.38
2022-10-09T03:42:07.687Z,29.58
2022-10-09T03:42:59.466Z,29.67
2022-10-09T03:43:50.695Z,29.45
2022-10-09T03:44:41.672Z,29.34
2022-10-09T03:45:31.577Z,29.56
2022-10-09T03:46:25.405Z,29.45
2022-10-09T03:47:17.441Z,29.58
2022-10-09T03:48:08.171Z,29.26
2022-10-09T03:48:58.468Z,29.26
2022-10-09T03:49:48.035Z,29.13
2022-10-09T03:50:40.226Z,29.41
2022-10-09T03:51:33.014Z,29.23
2022-10-09T03:52:23.200Z,29.22
2022-10-09T03:53:14.529Z,29.47
2022-10-09T03:54:05.512Z,29.50
2022-10-09T03:54:57.101Z,29.43
2022-10-09T03:55:48.127Z,29.59
2022-10-09T03:56:46.205Z,29.29
2022-10-09T03:57:37.476Z,29.48
2022-10-09T03:58:29.408Z,29.16
2022-10-09T03:59:18.746Z,29.17
2022-10-09T04:00:10.974Z,29.10
2022-10-09T04:01:03.098Z,29.42
2022-10-09T04:01:57.945Z,29.17
2022-10-09T04:02:50.479Z,29.17
2022-10-09T04:03:42.106Z,29.27
2022-10-09T04:04:32.590Z,29.22
2022-10-09T04:05:24.548Z,29.21
2022-10-09T04:06:16.390Z,29.21
2022-10-09T04:07:14.763Z,29.32
2022-10-09T04:08:06.707Z,29.06
2022-10-09T04:08:59.758Z,29.33
2022-10-09T04:09:51.391Z,29.28
2022-10-09T04:10:44.192Z,29.37
2022-10-09T04:11:36.950Z,29.27
2022-10-09T04:12:32.911Z,29.08
2022-10-09T04:13:24.475Z,29.23
2022-10-09T04:14:15.860Z,28.95
2022-10-09T04:15:06.726Z,29.48
2022-10-09T04:16:03.130Z,29.14
2022-10-09T04:16:55.926Z,29.29
2022-10-09T04:17:50.767Z,29.18
2022-10-09T04:18:45.094Z,29.30
2022-10-09T04:19:38.336Z,29.30
2022-10-09T04:20:36.271Z,29.11
2022-10-09T04:21:29.827Z,29.04
2022-10-09T04:22:24.548Z,29.28
2022-10-09T04:23:17.303Z,29.25
2022-10-09T04:24:10.375Z,28.93
2022-10-09T04:25:03.773Z,29.08
2022-10-09T04:26:58.780Z,29.06
2022-10-09T04:27:53.120Z,29.25
2022-10-09T04:28:46.072Z,28.90
2022-10-09T04:29:38.179Z,29.06
2022-10-09T04:30:35.452Z,29.15
2022-10-09T04:31:34.165Z,28.93
2022-10-09T04:32:27.648Z,28.85
2022-10-09T04:33:21.986Z,29.34
2022-10-09T04:34:12.054Z,29.26
2022-10-09T04:35:03.506Z,28.88
2022-10-09T04:35:57.456Z,29.04
2022-10-09T04:36:57.993Z,29.14
2022-10-09T04:37:52.396Z,29.25
2022-10-09T04:38:46.749Z,28.98
2022-10-09T04:39:40.634Z,28.86
2022-10-09T04:40:38.019Z,29.10
2022-10-09T04:41:33.520Z,28.95
2022-10-09T04:42:32.796Z,28.95
2022-10-09T04:43:28.547Z,29.06
2022-10-09T04:44:20.892Z,28.70
2022-10-09T04:45:16.549Z,29.12
2022-10-09T04:46:11.225Z,29.00
2022-10-09T04:47:12.953Z,29.15
2022-10-09T04:48:06.511Z,29.09
2022-10-09T04:49:00.918Z,29.13
2022-10-09T04:49:52.310Z,29.09
2022-10-09T04:50:44.214Z,28.63
2022-10-09T04:51:37.318Z,29.24
2022-10-09T04:52:35.378Z,28.85
2022-10-09T04:53:29.583Z,28.97
2022-10-09T04:54:22.724Z,29.04
2022-10-09T04:55:14.667Z,28.74
2022-10-09T04:56:08.279Z,29.05
2022-10-09T04:57:02.311Z,28.79
2022-10-09T04:58:57.563Z,29.10
2022-10-09T04:59:55.992Z,29.23
2022-10-09T05:00:50.806Z,28.76
2022-10-09T05:01:43.844Z,28.99
2022-10-09T05:02:35.726Z,28.74
2022-10-09T05:03:32.013Z,28.63
2022-10-09T05:04:25.135Z,28.73
2022-10-09T05:05:18.342Z,28.95
2022-10-09T05:06:12.090Z,29.04
2022-10-09T05:07:04.662Z,29.04
2022-10-09T05:07:56.391Z,28.97
2022-10-09T05:09:54.250Z,28.67
2022-10-09T05:10:46.009Z,28.73
2022-10-09T05:11:42.351Z,28.74
2022-10-09T05:12:34.190Z,28.74
2022-10-09T05:13:32.521Z,28.61
2022-10-09T05:14:26.101Z,28.99
2022-10-09T05:15:18.675Z,29.07
2022-10-09T05:16:10.406Z,28.76
2022-10-09T05:17:13.525Z,28.74
2022-10-09T05:18:06.932Z,29.09
2022-10-09T05:20:06.052Z,28.72
2022-10-09T05:20:56.750Z,28.61
2022-10-09T05:21:46.594Z,28.68
2022-10-09T05:22:36.671Z,28.84
2022-10-09T05:23:27.867Z,29.02
2022-10-09T05:24:25.463Z,28.97
2022-10-09T05:25:19.089Z,28.93
2022-10-09T05:26:13.369Z,29.09
2022-10-09T05:27:07.746Z,28.85
2022-10-09T05:28:01.145Z,28.77
2022-10-09T05:28:58.476Z,29.00
2022-10-09T05:29:52.977Z,28.85
2022-10-09T05:30:48.478Z,28.90
2022-10-09T05:31:45.762Z,28.60
2022-10-09T05:32:41.805Z,28.66
2022-10-09T05:33:35.026Z,28.90
2022-10-09T05:35:35.114Z,28.87
2022-10-09T05:36:27.773Z,28.53
2022-10-09T05:37:22.161Z,28.82
2022-10-09T05:38:16.315Z,28.52
2022-10-09T05:39:11.000Z,28.67
2022-10-09T05:40:07.633Z,28.60
2022-10-09T05:41:05.376Z,28.86
2022-10-09T05:42:00.257Z,28.68
2022-10-09T05:42:54.195Z,28.77
2022-10-09T05:43:48.291Z,28.87
2022-10-09T05:44:47.021Z,28.58
2022-10-09T05:45:39.481Z,29.02
2022-10-09T05:46:30.532Z,28.68
2022-10-09T05:47:24.659Z,28.87
2022-10-09T05:48:15.277Z,28.70
2022-10-09T05:49:06.303Z,28.73
2022-10-09T05:49:58.834Z,28.63
2022-10-09T05:50:49.171Z,28.56
2022-10-09T05:51:40.895Z,28.79
2022-10-09T05:52:31.426Z,28.88
2022-10-09T05:53:23.679Z,28.76
2022-10-09T05:54:14.063Z,28.88
2022-10-09T05:55:07.841Z,28.79
2022-10-09T05:56:02.979Z,28.53
2022-10-09T05:56:53.750Z,28.75
2022-10-09T05:57:43.878Z,28.89
2022-10-09T05:58:35.697Z,28.57
2022-10-09T05:59:28.460Z,28.76
2022-10-09T06:00:23.025Z,28.81
2022-10-09T06:01:12.812Z,28.80
2022-10-09T06:02:02.400Z,28.78
2022-10-09T06:02:53.945Z,28.91
2022-10-09T06:03:47.832Z,28.91
2022-10-09T06:04:38.440Z,28.87
2022-10-09T06:05:32.089Z,28.55
2022-10-09T06:06:20.902Z,28.74
2022-10-09T06:07:12.064Z,28.33
2022-10-09T06:08:04.819Z,28.63
2022-10-09T06:08:55.851Z,28.66
2022-10-09T06:09:46.287Z,28.76
2022-10-09T06:10:45.163Z,28.65
2022-10-09T06:11:38.136Z,28.38
2022-10-09T06:12:29.169Z,28.56
2022-10-09T06:13:20.062Z,28.68
2022-10-09T06:14:12.146Z,28.71
2022-10-09T06:15:05.413Z,28.61
2022-10-09T06:16:12.814Z,28.73
2022-10-09T06:17:02.447Z,28.72
2022-10-09T06:17:53.583Z,28.76
2022-10-09T06:18:48.704Z,28.42
2022-10-09T06:19:39.084Z,28.68
2022-10-09T06:20:30.863Z,28.31
2022-10-09T06:23:20.361Z,28.66
2022-10-09T06:23:58.441Z,28.90
2022-10-09T06:24:35.585Z,28.69
2022-10-09T06:25:13.673Z,28.65
2022-10-09T06:25:53.552Z,28.73
2022-10-09T06:26:31.112Z,28.66
2022-10-09T06:27:08.957Z,28.46
2022-10-09T06:27:47.334Z,28.84
2022-10-09T06:28:25.304Z,28.55
2022-10-09T06:29:04.323Z,28.51
2022-10-09T06:29:42.689Z,28.50
2022-10-09T06:30:20.623Z,28.79
2022-10-09T06:30:59.561Z,28.63
2022-10-09T06:31:41.934Z,28.56
2022-10-09T06:32:30.869Z,28.67
2022-10-09T06:33:17.154Z,28.52
2022-10-09T06:33:55.018Z,28.77
2022-10-09T06:34:31.789Z,28.86
2022-10-09T06:35:08.674Z,28.64
2022-10-09T06:35:46.894Z,28.85
2022-10-09T06:36:23.642Z,28.84
2022-10-09T06:37:02.036Z,28.64
2022-10-09T06:37:40.490Z,28.60
2022-10-09T06:38:19.062Z,28.60
2022-10-09T06:38:56.604Z,28.93
2022-10-09T06:39:34.785Z,28.75
2022-10-09T06:40:12.277Z,28.66
2022-10-09T06:40:50.281Z,28.59
2022-10-09T06:41:28.957Z,28.96
2022-10-09T06:42:07.419Z,28.83
2022-10-09T06:42:46.694Z,28.84
2022-10-09T06:43:31.177Z,29.02
2022-10-09T06:44:17.850Z,28.96
2022-10-09T06:45:05.485Z,28.83
2022-10-09T06:45:45.811Z,28.69
2022-10-09T06:46:23.579Z,28.66
2022-10-09T06:47:01.530Z,28.59
2022-10-09T06:47:38.612Z,28.93
2022-10-09T06:48:15.329Z,28.81
2022-10-09T06:48:51.688Z,28.94
2022-10-09T06:49:30.681Z,28.56
2022-10-09T06:50:07.357Z,28.78
2022-10-09T06:50:46.961Z,28.50
2022-10-09T06:51:24.582Z,28.65
2022-10-09T06:52:01.814Z,28.64
2022-10-09T06:52:38.629Z,28.34
2022-10-09T06:53:15.978Z,28.86
2022-10-09T06:53:52.934Z,28.94
2022-10-09T06:54:31.043Z,28.53
2022-10-09T06:55:07.836Z,28.93
2022-10-09T06:56:03.221Z,28.87
2022-10-09T06:56:42.649Z,29.00
2022-10-09T06:57:19.114Z,28.90
2022-10-09T06:57:57.178Z,28.81
2022-10-09T06:58:34.921Z,28.59
2022-10-09T06:59:12.134Z,28.93
2022-10-09T06:59:48.989Z,28.74
2022-10-09T07:00:26.424Z,28.97
2022-10-09T07:01:08.145Z,28.79
2022-10-09T07:01:44.463Z,28.68
2022-10-09T07:02:21.548Z,29.06
2022-10-09T07:02:58.447Z,28.95
2022-10-09T07:03:35.510Z,29.06
2022-10-09T07:04:15.711Z,28.70
2022-10-09T07:04:53.645Z,28.94
2022-10-09T07:05:31.732Z,28.63
2022-10-09T07:06:22.499Z,28.83
2022-10-09T07:06:59.022Z,29.13
2022-10-09T07:07:35.810Z,29.17
2022-10-09T07:08:12.641Z,28.76
2022-10-09T07:08:49.555Z,28.73
2022-10-09T07:09:26.270Z,28.97
2022-10-09T07:10:02.739Z,28.98
2022-10-09T07:10:39.300Z,28.93
2022-10-09T07:11:15.038Z,29.14
2022-10-09T07:11:51.781Z,29.10
2022-10-09T07:12:29.479Z,29.14
2022-10-09T07:13:09.461Z,29.10
2022-10-09T07:13:49.281Z,28.79
2022-10-09T07:14:27.148Z,29.16
2022-10-09T07:15:04.023Z,28.96
2022-10-09T07:15:46.597Z,29.09
2022-10-09T07:16:24.732Z,29.23
2022-10-09T07:17:04.050Z,29.20
2022-10-09T07:17:46.022Z,28.93
2022-10-09T07:18:32.520Z,29.20
2022-10-09T07:19:18.031Z,29.22
2022-10-09T07:19:55.070Z,29.19
2022-10-09T07:20:32.800Z,29.27
2022-10-09T07:21:09.504Z,29.31
2022-10-09T07:21:46.851Z,28.83
2022-10-09T07:22:27.030Z,29.07
2022-10-09T07:23:03.402Z,28.93
2022-10-09T07:23:40.042Z,29.38
2022-10-09T07:24:16.849Z,29.12
2022-10-09T07:24:53.709Z,29.17
2022-10-09T07:25:30.562Z,29.19
2022-10-09T07:26:41.516Z,29.21
2022-10-09T07:27:18.019Z,29.16
2022-10-09T07:27:54.650Z,29.11
2022-10-09T07:28:31.640Z,29.42
2022-10-09T07:29:08.225Z,29.14
2022-10-09T07:29:45.054Z,29.46
2022-10-09T07:30:21.578Z,29.38
2022-10-09T07:30:58.360Z,29.24
2022-10-09T07:31:35.209Z,29.24
2022-10-09T07:32:13.047Z,29.04
2022-10-09T07:32:50.128Z,29.04
2022-10-09T07:33:27.085Z,29.24
2022-10-09T07:34:03.804Z,29.10
2022-10-09T07:34:40.498Z,29.29
2022-10-09T07:35:17.492Z,29.36
2022-10-09T07:35:57.458Z,29.18
2022-10-09T07:36:34.210Z,29.52
2022-10-09T07:37:11.796Z,29.35
2022-10-09T07:37:51.507Z,29.13
2022-10-09T07:38:29.994Z,29.34
2022-10-09T07:39:10.163Z,29.37
2022-10-09T07:39:51.461Z,29.42
2022-10-09T07:40:33.469Z,29.23
2022-10-09T07:41:19.006Z,29.37
2022-10-09T07:42:05.410Z,29.35
2022-10-09T07:42:50.804Z,29.59
2022-10-09T07:43:34.441Z,29.21
2022-10-09T07:44:13.080Z,29.45
2022-10-09T07:44:49.856Z,29.24
2022-10-09T07:45:26.991Z,29.29
2022-10-09T07:46:03.912Z,29.34
2022-10-09T07:46:42.327Z,29.24
2022-10-09T07:47:19.155Z,29.22
2022-10-09T07:47:55.812Z,29.56
2022-10-09T07:48:32.518Z,29.69
2022-10-09T07:49:09.420Z,29.63
2022-10-09T07:49:46.294Z,29.27
2022-10-09T07:50:23.500Z,29.67
2022-10-09T07:51:00.219Z,29.62
2022-10-09T07:51:37.803Z,29.32
2022-10-09T07:52:15.230Z,29.37
2022-10-09T07:52:52.558Z,29.37
2022-10-09T07:53:31.516Z,29.63
2022-10-09T07:54:11.048Z,29.75
2022-10-09T07:54:47.813Z,29.39
2022-10-09T07:55:24.814Z,29.68
2022-10-09T07:56:01.517Z,29.59
2022-10-09T07:56:39.035Z,29.50
2022-10-09T07:57:15.753Z,29.77
2022-10-09T07:57:52.471Z,29.91
2022-10-09T07:58:29.759Z,29.59
2022-10-09T07:59:08.862Z,29.83
2022-10-09T07:59:49.617Z,29.83
2022-10-09T08:00:32.292Z,29.71
2022-10-09T08:01:20.101Z,29.72
2022-10-09T08:02:03.448Z,29.86
2022-10-09T08:02:40.516Z,29.66
2022-10-09T08:03:17.196Z,30.07
2022-10-09T08:03:53.988Z,29.61
2022-10-09T08:04:30.842Z,29.54
2022-10-09T08:05:07.417Z,29.92
2022-10-09T08:05:44.125Z,29.95
2022-10-09T08:06:20.774Z,29.84
2022-10-09T08:06:58.100Z,29.62
2022-10-09T08:07:35.264Z,29.68
2022-10-09T08:08:11.724Z,29.93
2022-10-09T08:08:48.494Z,29.75
2022-10-09T08:09:25.490Z,29.71
2022-10-09T08:10:02.502Z,30.01
2022-10-09T08:10:39.248Z,29.78
2022-10-09T08:11:16.171Z,29.62
2022-10-09T08:11:52.980Z,30.09
2022-10-09T08:12:30.704Z,29.99
2022-10-09T08:13:07.770Z,29.91
2022-10-09T08:13:44.706Z,30.05
2022-10-09T08:14:21.983Z,30.03
2022-10-09T08:14:59.179Z,30.03
2022-10-09T08:15:36.195Z,30.00
2022-10-09T08:16:12.835Z,29.93
2022-10-09T08:16:49.536Z,29.80
2022-10-09T08:17:26.800Z,29.97
2022-10-09T08:18:03.542Z,30.17
2022-10-09T08:18:40.206Z,30.08
2022-10-09T08:19:16.829Z,30.08
2022-10-09T08:19:53.852Z,30.02
2022-10-09T08:20:30.623Z,29.95
2022-10-09T08:21:11.106Z,30.26
2022-10-09T08:21:51.956Z,29.86
2022-10-09T08:22:33.684Z,29.97
2022-10-09T08:23:16.477Z,30.09
2022-10-09T08:23:57.567Z,30.14
2022-10-09T08:24:38.228Z,30.05
2022-10-09T08:25:18.504Z,30.15
2022-10-09T08:25:56.837Z,29.95
2022-10-09T08:26:39.479Z,30.33
2022-10-09T08:27:19.632Z,30.20
2022-10-09T08:28:04.589Z,29.95
2022-10-09T08:28:48.649Z,30.18
2022-10-09T08:29:30.000Z,30.26
2022-10-09T08:30:11.945Z,30.05
2022-10-09T08:30:58.183Z,30.07
2022-10-09T08:31:42.148Z,30.31
2022-10-09T08:32:18.658Z,30.42
2022-10-09T08:32:55.383Z,30.27
2022-10-09T08:33:32.039Z,30.42
2022-10-09T08:34:08.868Z,30.39
2022-10-09T08:34:45.805Z,30.20
2022-10-09T08:35:22.567Z,30.40
2022-10-09T08:35:59.032Z,30.45
2022-10-09T08:36:36.827Z,30.33
2022-10-09T08:37:13.758Z,30.51
2022-10-09T08:37:50.916Z,30.39
2022-10-09T08:38:46.535Z,30.46
2022-10-09T08:39:23.855Z,30.19
2022-10-09T08:40:01.013Z,30.66
2022-10-09T08:41:09.244Z,30.33
2022-10-09T08:41:47.595Z,30.33
2022-10-09T08:42:31.207Z,30.47
2022-10-09T08:43:08.038Z,30.18
2022-10-09T08:43:47.734Z,30.45
2022-10-09T08:44:28.474Z,30.56
2022-10-09T08:45:05.433Z,30.60
2022-10-09T08:45:44.154Z,30.66
2022-10-09T08:48:46.069Z,30.64
2022-10-09T08:49:33.310Z,30.85
2022-10-09T08:50:17.391Z,30.71
2022-10-09T08:51:06.614Z,30.76
2022-10-09T08:51:59.098Z,30.55
2022-10-09T08:54:10.912Z,31.06
2022-10-09T08:56:05.269Z,30.77
2022-10-09T08:57:04.046Z,31.03
2022-10-09T08:59:06.047Z,31.00
2022-10-09T08:59:54.633Z,31.01
2022-10-09T09:00:49.962Z,30.95
2022-10-09T09:01:49.671Z,30.83
2022-10-09T09:04:00.549Z,31.02
2022-10-09T09:04:54.827Z,31.15
2022-10-09T09:05:39.442Z,31.07
2022-10-09T09:06:40.173Z,30.93
2022-10-09T09:08:03.445Z,31.02
2022-10-09T09:08:59.573Z,31.09
2022-10-09T09:09:44.059Z,31.25
2022-10-09T09:10:24.699Z,31.08
2022-10-09T09:11:06.274Z,31.01
2022-10-09T09:12:05.423Z,30.96
2022-10-09T09:13:05.869Z,31.29
2022-10-09T09:14:23.812Z,31.02
2022-10-09T09:15:15.264Z,31.38
2022-10-09T09:16:05.722Z,31.12
2022-10-09T09:16:52.415Z,31.30
2022-10-09T09:17:45.604Z,31.46
2022-10-09T09:18:39.613Z,31.22
2022-10-09T09:19:32.857Z,31.17
2022-10-09T09:20:21.633Z,31.53
2022-10-09T09:21:33.488Z,31.64
2022-10-09T09:22:35.990Z,31.55
2022-10-09T09:23:27.514Z,31.67
2022-10-09T09:24:15.392Z,31.59
2022-10-09T09:25:04.932Z,31.56
2022-10-09T09:25:57.672Z,31.60
2022-10-09T09:26:49.713Z,31.38
2022-10-09T09:27:44.034Z,31.47
2022-10-09T09:28:37.349Z,31.46
2022-10-09T09:29:32.419Z,31.80
2022-10-09T09:30:29.586Z,31.72
2022-10-09T09:31:29.940Z,31.63
2022-10-09T09:32:50.268Z,31.49
2022-10-09T09:33:44.403Z,31.84
2022-10-09T09:35:57.935Z,31.87
2022-10-09T09:36:57.815Z,31.66
2022-10-09T09:40:35.577Z,31.94
2022-10-09T09:41:08.642Z,31.70
2022-10-09T09:41:58.140Z,31.99
2022-10-09T09:42:49.749Z,31.88
2022-10-09T09:43:38.935Z,31.49
2022-10-09T09:44:25.248Z,31.71
2022-10-09T09:45:15.901Z,31.56
2022-10-09T09:46:07.206Z,31.84
2022-10-09T09:46:55.166Z,31.79
2022-10-09T09:47:57.740Z,31.38
2022-10-09T09:48:48.455Z,31.73
2022-10-09T09:49:40.051Z,31.53
2022-10-09T09:50:48.541Z,31.39
2022-10-09T09:51:43.999Z,31.71
2022-10-09T09:52:39.074Z,31.57
2022-10-09T09:53:31.914Z,31.50
2022-10-09T09:54:32.919Z,31.46
2022-10-09T09:55:36.577Z,31.70
2022-10-09T09:56:26.700Z,31.38
2022-10-09T09:57:22.003Z,31.61
2022-10-09T09:58:17.715Z,31.75
2022-10-09T09:59:08.734Z,31.65
2022-10-09T10:00:01.909Z,31.32
2022-10-09T10:00:54.531Z,31.38
2022-10-09T10:01:45.191Z,31.08
2022-10-09T10:02:35.323Z,31.39
2022-10-09T10:03:32.854Z,31.31
2022-10-09T10:04:26.373Z,31.17
2022-10-09T10:05:34.443Z,31.13
2022-10-09T10:06:34.175Z,30.98
2022-10-09T10:07:23.097Z,31.07
2022-10-09T10:08:15.951Z,31.35
2022-10-09T10:09:14.189Z,31.34
2022-10-09T10:10:10.775Z,31.29
2022-10-09T10:11:02.030Z,31.23
2022-10-09T10:11:56.748Z,31.12
2022-10-09T10:12:50.687Z,31.36
2022-10-09T10:13:47.239Z,31.26
2022-10-09T10:14:39.648Z,31.16
2022-10-09T10:15:45.393Z,31.35
2022-10-09T10:16:43.386Z,31.31
2022-10-09T10:17:37.398Z,31.29
2022-10-09T10:18:35.021Z,31.09
2022-10-09T10:20:11.842Z,31.20
2022-10-09T10:21:01.570Z,31.10
2022-10-09T10:21:52.204Z,31.35
2022-10-09T10:22:41.603Z,31.05
2022-10-09T10:23:36.059Z,31.24
2022-10-09T10:24:28.982Z,31.01
2022-10-09T10:25:18.868Z,31.23
2022-10-09T10:26:08.254Z,30.77
2022-10-09T10:27:00.816Z,31.07
2022-10-09T10:27:54.306Z,30.86
2022-10-09T10:28:49.928Z,30.82
2022-10-09T10:29:58.484Z,31.11
2022-10-09T10:30:50.330Z,31.23
2022-10-09T10:31:53.190Z,30.79
2022-10-09T10:32:48.083Z,30.99
2022-10-09T10:33:42.497Z,31.23
2022-10-09T10:34:33.228Z,30.95
2022-10-09T10:35:24.707Z,31.31
2022-10-09T10:36:14.805Z,31.09
2022-10-09T10:37:06.867Z,31.03
2022-10-09T10:38:04.806Z,31.01
2022-10-09T10:39:03.973Z,30.79
2022-10-09T10:40:10.165Z,30.97
2022-10-09T10:40:59.336Z,30.99
2022-10-09T10:42:36.755Z,30.85
2022-10-09T10:43:26.684Z,30.93
2022-10-09T10:44:27.421Z,30.84
2022-10-09T10:45:27.912Z,31.18
2022-10-09T10:46:16.678Z,30.84
2022-10-09T10:47:06.914Z,30.76
2022-10-09T10:47:58.748Z,31.05
2022-10-09T10:48:51.345Z,30.88
2022-10-09T10:49:40.732Z,31.03
2022-10-09T10:50:31.277Z,31.17
2022-10-09T10:51:15.313Z,30.74
2022-10-09T10:51:56.861Z,31.08
2022-10-09T10:52:45.102Z,30.78
2022-10-09T10:53:31.694Z,30.88
2022-10-09T10:54:16.828Z,31.13
2022-10-09T10:55:23.881Z,31.02
2022-10-09T10:56:18.572Z,30.79
2022-10-09T10:57:12.487Z,31.00
2022-10-09T10:58:06.044Z,30.63
2022-10-09T10:58:54.547Z,30.78
2022-10-09T10:59:52.530Z,30.68
2022-10-09T11:00:41.249Z,30.65
2022-10-09T11:01:28.778Z,30.65
2022-10-09T11:02:12.204Z,30.55
2022-10-09T11:02:59.314Z,30.84
2022-10-09T11:04:11.096Z,30.46
2022-10-09T11:05:14.827Z,30.75
2022-10-09T11:06:08.500Z,30.63
2022-10-09T11:07:06.650Z,30.77
2022-10-09T11:08:00.524Z,30.81
2022-10-09T11:08:55.779Z,30.90
2022-10-09T11:10:02.542Z,30.43
2022-10-09T11:11:02.213Z,30.68
2022-10-09T11:11:52.706Z,30.87
2022-10-09T11:12:56.017Z,30.86
2022-10-09T11:13:46.919Z,31.00
2022-10-09T11:14:45.341Z,31.28
2022-10-09T11:15:44.934Z,30.64
2022-10-09T11:16:26.441Z,30.66
2022-10-09T11:17:18.047Z,30.36
2022-10-09T11:18:07.234Z,30.31
2022-10-09T11:19:07.766Z,30.32
2022-10-09T11:20:03.595Z,30.13
2022-10-09T11:20:46.404Z,30.10
2022-10-09T11:21:41.863Z,30.23
2022-10-09T11:22:43.595Z,30.34
2022-10-09T11:23:46.181Z,30.37
2022-10-09T11:24:55.355Z,30.37
2022-10-09T11:25:52.687Z,30.24
2022-10-09T11:26:44.055Z,30.03
2022-10-09T11:27:26.165Z,30.05
2022-10-09T11:28:12.931Z,30.08
2022-10-09T11:28:59.550Z,30.16
2022-10-09T11:29:57.653Z,30.19
2022-10-09T11:30:48.639Z,30.17
2022-10-09T11:31:51.212Z,30.22
2022-10-09T11:32:53.010Z,30.25
2022-10-09T11:33:50.226Z,30.40
2022-10-09T11:34:41.205Z,30.24
2022-10-09T11:35:33.877Z,30.47
2022-10-09T11:36:24.332Z,30.67